sensor_id;sensor_type;location;lat;lon;timestamp;pressure;altitude;pressure_sealevel;temperature;humidity
44148;BME280;29810;55.848;37.368;2023-01-26T00:00:33;99710.69;;;-3.00;80.98
44148;BME280;29810;55.848;37.368;2023-01-26T00:03:35;99700.69;;;-2.90;80.81
44148;BME280;29810;55.848;37.368;2023-01-26T00:06:36;99703.25;;;-2.90;80.85
44148;BME280;29810;55.848;37.368;2023-01-26T00:09:38;99698.28;;;-2.86;80.72
44148;BME280;29810;55.848;37.368;2023-01-26T00:12:39;99704.47;;;-2.76;80.49
44148;BME280;29810;55.848;37.368;2023-01-26T00:15:41;99708.59;;;-2.81;80.16
44148;BME280;29810;55.848;37.368;2023-01-26T00:18:42;99700.56;;;-2.96;80.51
44148;BME280;29810;55.848;37.368;2023-01-26T00:21:44;99705.66;;;-2.96;81.06
44148;BME280;29810;55.848;37.368;2023-01-26T00:24:45;99703.84;;;-3.01;80.68
44148;BME280;29810;55.848;37.368;2023-01-26T00:27:47;99717.47;;;-3.00;81.01
44148;BME280;29810;55.848;37.368;2023-01-26T00:30:48;99654.25;;;-3.44;81.35
44148;BME280;29810;55.848;37.368;2023-01-26T00:33:52;99695.09;;;-3.10;81.34
44148;BME280;29810;55.848;37.368;2023-01-26T00:36:54;99703.69;;;-3.07;81.54
44148;BME280;29810;55.848;37.368;2023-01-26T00:39:55;99691.00;;;-3.04;81.37
44148;BME280;29810;55.848;37.368;2023-01-26T00:42:58;99703.94;;;-2.97;80.94
44148;BME280;29810;55.848;37.368;2023-01-26T00:45:59;99709.81;;;-3.00;81.21
44148;BME280;29810;55.848;37.368;2023-01-26T00:49:04;99700.34;;;-3.06;81.54
44148;BME280;29810;55.848;37.368;2023-01-26T00:52:07;99699.50;;;-3.05;81.59
44148;BME280;29810;55.848;37.368;2023-01-26T00:55:08;99702.53;;;-2.86;81.47
44148;BME280;29810;55.848;37.368;2023-01-26T00:58:10;99693.78;;;-2.94;81.26
44148;BME280;29810;55.848;37.368;2023-01-26T01:01:12;99699.00;;;-2.91;81.35
44148;BME280;29810;55.848;37.368;2023-01-26T01:04:16;99699.00;;;-2.91;81.05
44148;BME280;29810;55.848;37.368;2023-01-26T01:07:18;99707.28;;;-3.00;81.23
44148;BME280;29810;55.848;37.368;2023-01-26T01:10:20;99701.38;;;-2.97;81.43
44148;BME280;29810;55.848;37.368;2023-01-26T01:13:21;99710.72;;;-2.98;81.28
44148;BME280;29810;55.848;37.368;2023-01-26T01:16:23;99689.22;;;-3.08;82.88
44148;BME280;29810;55.848;37.368;2023-01-26T01:19:25;99705.66;;;-2.96;81.63
44148;BME280;29810;55.848;37.368;2023-01-26T01:22:27;99697.78;;;-3.06;82.07
44148;BME280;29810;55.848;37.368;2023-01-26T01:25:29;99695.38;;;-3.00;81.98
44148;BME280;29810;55.848;37.368;2023-01-26T01:28:33;99701.91;;;-3.11;81.88
44148;BME280;29810;55.848;37.368;2023-01-26T01:31:34;99697.66;;;-3.10;82.16
44148;BME280;29810;55.848;37.368;2023-01-26T01:34:36;99689.72;;;-3.21;82.46
44148;BME280;29810;55.848;37.368;2023-01-26T01:37:37;99700.94;;;-3.14;82.54
44148;BME280;29810;55.848;37.368;2023-01-26T01:40:42;99697.78;;;-3.06;82.47
44148;BME280;29810;55.848;37.368;2023-01-26T01:43:44;99686.31;;;-3.20;82.33
44148;BME280;29810;55.848;37.368;2023-01-26T01:46:55;99688.87;;;-3.20;82.65
44148;BME280;29810;55.848;37.368;2023-01-26T01:49:58;99677.19;;;-3.13;82.98
44148;BME280;29810;55.848;37.368;2023-01-26T01:53:06;99670.38;;;-3.13;82.67
44148;BME280;29810;55.848;37.368;2023-01-26T01:56:12;99679.00;;;-3.08;82.66
44148;BME280;29810;55.848;37.368;2023-01-26T01:59:17;99666.22;;;-3.09;82.60
44148;BME280;29810;55.848;37.368;2023-01-26T02:02:22;99674.09;;;-3.00;82.57
44148;BME280;29810;55.848;37.368;2023-01-26T02:05:29;99673.47;;;-2.91;82.24
44148;BME280;29810;55.848;37.368;2023-01-26T02:08:35;99664.28;;;-2.85;82.47
44148;BME280;29810;55.848;37.368;2023-01-26T02:11:42;99662.72;;;-2.78;81.92
44148;BME280;29810;55.848;37.368;2023-01-26T02:14:45;99666.25;;;-2.73;81.59
44148;BME280;29810;55.848;37.368;2023-01-26T02:18:08;99665.56;;;-2.66;81.84
44148;BME280;29810;55.848;37.368;2023-01-26T02:21:17;99662.91;;;-2.70;81.37
44148;BME280;29810;55.848;37.368;2023-01-26T02:24:25;99650.03;;;-2.75;81.50
44148;BME280;29810;55.848;37.368;2023-01-26T02:27:30;99637.28;;;-2.75;81.72
44148;BME280;29810;55.848;37.368;2023-01-26T02:30:31;99661.22;;;-2.70;81.04
44148;BME280;29810;55.848;37.368;2023-01-26T02:33:33;99654.97;;;-2.81;81.49
44148;BME280;29810;55.848;37.368;2023-01-26T02:36:35;99647.22;;;-2.86;81.65
44148;BME280;29810;55.848;37.368;2023-01-26T02:42:39;99642.34;;;-2.76;81.54
44148;BME280;29810;55.848;37.368;2023-01-26T02:45:42;99645.13;;;-2.66;81.30
44148;BME280;29810;55.848;37.368;2023-01-26T02:48:44;99645.03;;;-2.72;81.15
44148;BME280;29810;55.848;37.368;2023-01-26T02:52:05;99646.12;;;-2.60;81.57
44148;BME280;29810;55.848;37.368;2023-01-26T02:55:07;99638.34;;;-2.67;80.87
44148;BME280;29810;55.848;37.368;2023-01-26T02:58:29;99636.41;;;-2.75;81.44
44148;BME280;29810;55.848;37.368;2023-01-26T03:01:30;99620.94;;;-2.83;81.45
44148;BME280;29810;55.848;37.368;2023-01-26T03:04:32;99610.00;;;-2.77;82.09
44148;BME280;29810;55.848;37.368;2023-01-26T03:07:34;99592.81;;;-2.85;81.86
44148;BME280;29810;55.848;37.368;2023-01-26T03:10:36;99628.97;;;-2.66;81.74
44148;BME280;29810;55.848;37.368;2023-01-26T03:13:37;99626.56;;;-2.60;81.28
44148;BME280;29810;55.848;37.368;2023-01-26T03:16:39;99610.38;;;-2.60;81.37
44148;BME280;29810;55.848;37.368;2023-01-26T03:19:42;99601.31;;;-2.46;81.02
44148;BME280;29810;55.848;37.368;2023-01-26T03:23:07;99593.69;;;-2.44;80.75
44148;BME280;29810;55.848;37.368;2023-01-26T03:26:27;99609.50;;;-2.62;80.70
44148;BME280;29810;55.848;37.368;2023-01-26T03:29:54;99613.34;;;-2.78;81.50
44148;BME280;29810;55.848;37.368;2023-01-26T03:32:56;99617.91;;;-2.67;81.49
44148;BME280;29810;55.848;37.368;2023-01-26T03:35:58;99612.87;;;-2.63;81.81
44148;BME280;29810;55.848;37.368;2023-01-26T03:39:00;99600.03;;;-2.67;81.28
44148;BME280;29810;55.848;37.368;2023-01-26T03:42:03;99620.34;;;-2.71;81.19
44148;BME280;29810;55.848;37.368;2023-01-26T03:45:24;99618.63;;;-2.71;81.44
44148;BME280;29810;55.848;37.368;2023-01-26T03:48:44;99617.06;;;-2.66;81.07
44148;BME280;29810;55.848;37.368;2023-01-26T03:52:04;99613.00;;;-2.57;80.54
44148;BME280;29810;55.848;37.368;2023-01-26T03:55:25;99620.37;;;-2.70;80.94
44148;BME280;29810;55.848;37.368;2023-01-26T03:58:51;99622.78;;;-2.76;81.59
44148;BME280;29810;55.848;37.368;2023-01-26T04:01:53;99617.84;;;-2.68;81.55
44148;BME280;29810;55.848;37.368;2023-01-26T04:05:14;99591.19;;;-2.81;82.00
44148;BME280;29810;55.848;37.368;2023-01-26T04:08:34;99612.91;;;-2.62;82.37
44148;BME280;29810;55.848;37.368;2023-01-26T04:11:36;99628.13;;;-2.67;81.46
44148;BME280;29810;55.848;37.368;2023-01-26T04:14:37;99634.03;;;-2.69;81.46
44148;BME280;29810;55.848;37.368;2023-01-26T04:17:58;99633.22;;;-2.67;81.45
44148;BME280;29810;55.848;37.368;2023-01-26T04:21:18;99629.00;;;-2.64;81.40
44148;BME280;29810;55.848;37.368;2023-01-26T04:24:34;99621.19;;;-2.71;81.19
44148;BME280;29810;55.848;37.368;2023-01-26T04:27:35;99622.72;;;-2.79;81.68
44148;BME280;29810;55.848;37.368;2023-01-26T04:30:38;99618.47;;;-2.78;81.40
44148;BME280;29810;55.848;37.368;2023-01-26T04:33:39;99622.66;;;-2.82;81.72
44148;BME280;29810;55.848;37.368;2023-01-26T04:36:42;99616.19;;;-2.68;81.54
44148;BME280;29810;55.848;37.368;2023-01-26T04:39:43;99615.38;;;-2.65;81.11
44148;BME280;29810;55.848;37.368;2023-01-26T04:42:45;99608.50;;;-2.69;80.96
44148;BME280;29810;55.848;37.368;2023-01-26T04:46:04;99612.66;;;-2.73;81.22
44148;BME280;29810;55.848;37.368;2023-01-26T04:49:06;99610.13;;;-2.71;81.53
44148;BME280;29810;55.848;37.368;2023-01-26T04:52:08;99605.00;;;-2.73;81.30
44148;BME280;29810;55.848;37.368;2023-01-26T04:55:10;99611.72;;;-2.76;81.27
44148;BME280;29810;55.848;37.368;2023-01-26T04:58:16;99612.47;;;-2.80;81.36
44148;BME280;29810;55.848;37.368;2023-01-26T05:01:18;99615.47;;;-2.60;81.69
44148;BME280;29810;55.848;37.368;2023-01-26T05:04:20;99607.28;;;-2.47;80.78
44148;BME280;29810;55.848;37.368;2023-01-26T05:07:22;99614.66;;;-2.59;81.03
44148;BME280;29810;55.848;37.368;2023-01-26T05:10:24;99598.50;;;-2.60;80.93
44148;BME280;29810;55.848;37.368;2023-01-26T05:13:26;99608.53;;;-2.68;80.67
44148;BME280;29810;55.848;37.368;2023-01-26T05:16:27;99581.84;;;-2.80;80.60
44148;BME280;29810;55.848;37.368;2023-01-26T05:19:29;99609.50;;;-2.62;80.30
44148;BME280;29810;55.848;37.368;2023-01-26T05:22:31;99604.03;;;-2.78;80.44
44148;BME280;29810;55.848;37.368;2023-01-26T05:25:37;99594.38;;;-2.91;81.61
44148;BME280;29810;55.848;37.368;2023-01-26T05:28:39;99603.91;;;-2.83;81.63
44148;BME280;29810;55.848;37.368;2023-01-26T05:31:41;99601.53;;;-2.75;81.13
44148;BME280;29810;55.848;37.368;2023-01-26T05:34:44;99597.56;;;-2.63;80.86
44148;BME280;29810;55.848;37.368;2023-01-26T05:37:47;99591.28;;;-2.78;80.36
44148;BME280;29810;55.848;37.368;2023-01-26T05:40:49;99599.13;;;-2.69;80.81
44148;BME280;29810;55.848;37.368;2023-01-26T05:43:50;99595.97;;;-2.58;80.17
44148;BME280;29810;55.848;37.368;2023-01-26T05:46:53;99602.50;;;-2.70;80.65
44148;BME280;29810;55.848;37.368;2023-01-26T05:49:55;99605.16;;;-2.67;81.14
44148;BME280;29810;55.848;37.368;2023-01-26T05:52:57;99608.78;;;-2.55;80.66
44148;BME280;29810;55.848;37.368;2023-01-26T05:56:01;99602.81;;;-2.57;80.00
44148;BME280;29810;55.848;37.368;2023-01-26T05:59:02;99588.50;;;-2.49;79.98
44148;BME280;29810;55.848;37.368;2023-01-26T06:02:05;99599.69;;;-2.44;79.59
44148;BME280;29810;55.848;37.368;2023-01-26T06:05:07;99585.31;;;-2.39;79.40
44148;BME280;29810;55.848;37.368;2023-01-26T06:08:09;99596.75;;;-2.21;79.12
44148;BME280;29810;55.848;37.368;2023-01-26T06:11:11;99561.78;;;-2.22;78.78
44148;BME280;29810;55.848;37.368;2023-01-26T06:14:13;99571.31;;;-2.15;78.45
44148;BME280;29810;55.848;37.368;2023-01-26T06:17:16;99585.50;;;-2.29;78.58
44148;BME280;29810;55.848;37.368;2023-01-26T06:20:19;99576.19;;;-2.27;78.50
44148;BME280;29810;55.848;37.368;2023-01-26T06:23:21;99575.00;;;-2.42;78.77
44148;BME280;29810;55.848;37.368;2023-01-26T06:26:23;99575.19;;;-2.34;79.00
44148;BME280;29810;55.848;37.368;2023-01-26T06:29:25;99576.91;;;-2.33;78.39
44148;BME280;29810;55.848;37.368;2023-01-26T06:32:26;99576.94;;;-2.31;78.92
44148;BME280;29810;55.848;37.368;2023-01-26T06:35:29;99576.50;;;-2.12;79.20
44148;BME280;29810;55.848;37.368;2023-01-26T06:38:31;99573.59;;;-1.86;78.69
44148;BME280;29810;55.848;37.368;2023-01-26T06:41:33;99570.53;;;-1.67;77.09
44148;BME280;29810;55.848;37.368;2023-01-26T06:44:35;99576.28;;;-1.80;76.92
44148;BME280;29810;55.848;37.368;2023-01-26T06:47:37;99577.00;;;-1.86;77.17
44148;BME280;29810;55.848;37.368;2023-01-26T06:50:39;99575.44;;;-1.79;77.16
44148;BME280;29810;55.848;37.368;2023-01-26T06:53:54;99565.91;;;-1.88;77.03
44148;BME280;29810;55.848;37.368;2023-01-26T06:56:57;99568.28;;;-1.97;77.70
44148;BME280;29810;55.848;37.368;2023-01-26T06:59:59;99576.06;;;-1.91;77.39
44148;BME280;29810;55.848;37.368;2023-01-26T07:03:01;99566.59;;;-1.95;77.10
44148;BME280;29810;55.848;37.368;2023-01-26T07:06:03;99561.81;;;-1.78;76.90
44148;BME280;29810;55.848;37.368;2023-01-26T07:09:06;99555.25;;;-1.63;76.67
44148;BME280;29810;55.848;37.368;2023-01-26T07:12:07;99564.66;;;-1.62;76.39
44148;BME280;29810;55.848;37.368;2023-01-26T07:15:10;99568.94;;;-1.61;76.08
44148;BME280;29810;55.848;37.368;2023-01-26T07:18:12;99563.97;;;-1.52;76.18
44148;BME280;29810;55.848;37.368;2023-01-26T07:21:16;99561.72;;;-1.34;76.09
44148;BME280;29810;55.848;37.368;2023-01-26T07:24:21;99564.13;;;-1.43;75.36
44148;BME280;29810;55.848;37.368;2023-01-26T07:27:22;99559.22;;;-1.32;75.17
44148;BME280;29810;55.848;37.368;2023-01-26T07:30:24;99567.75;;;-1.31;75.39
44148;BME280;29810;55.848;37.368;2023-01-26T07:33:30;99569.50;;;-1.27;75.02
44148;BME280;29810;55.848;37.368;2023-01-26T07:36:32;99569.25;;;-1.43;75.06
44148;BME280;29810;55.848;37.368;2023-01-26T07:39:34;99575.44;;;-1.30;75.63
44148;BME280;29810;55.848;37.368;2023-01-26T07:42:35;99567.75;;;-1.31;75.00
44148;BME280;29810;55.848;37.368;2023-01-26T07:45:37;99570.12;;;-1.42;75.28
44148;BME280;29810;55.848;37.368;2023-01-26T07:48:39;99553.84;;;-1.46;75.96
44148;BME280;29810;55.848;37.368;2023-01-26T07:51:41;99569.63;;;-1.21;75.44
44148;BME280;29810;55.848;37.368;2023-01-26T07:54:43;99569.34;;;-1.38;74.76
44148;BME280;29810;55.848;37.368;2023-01-26T07:57:48;99564.19;;;-1.40;75.23
44148;BME280;29810;55.848;37.368;2023-01-26T08:00:49;99559.81;;;-1.45;75.61
44148;BME280;29810;55.848;37.368;2023-01-26T08:03:51;99548.19;;;-1.28;75.74
44148;BME280;29810;55.848;37.368;2023-01-26T08:06:56;99554.28;;;-1.20;74.82
44148;BME280;29810;55.848;37.368;2023-01-26T08:09:57;99556.22;;;-1.05;74.76
44148;BME280;29810;55.848;37.368;2023-01-26T08:12:59;99557.66;;;-1.22;74.47
44148;BME280;29810;55.848;37.368;2023-01-26T08:16:09;99559.16;;;-1.35;75.13
44148;BME280;29810;55.848;37.368;2023-01-26T08:19:12;99546.66;;;-1.17;75.27
44148;BME280;29810;55.848;37.368;2023-01-26T08:22:14;99544.81;;;-1.25;75.04
44148;BME280;29810;55.848;37.368;2023-01-26T08:25:15;99543.28;;;-1.12;75.04
44148;BME280;29810;55.848;37.368;2023-01-26T08:28:17;99543.53;;;-0.97;74.20
44148;BME280;29810;55.848;37.368;2023-01-26T08:31:19;99546.19;;;-0.92;73.99
44148;BME280;29810;55.848;37.368;2023-01-26T08:34:21;99534.22;;;-0.92;74.47
44148;BME280;29810;55.848;37.368;2023-01-26T08:37:23;99534.31;;;-0.86;74.14
44148;BME280;29810;55.848;37.368;2023-01-26T08:40:25;99541.41;;;-1.24;74.14
44148;BME280;29810;55.848;37.368;2023-01-26T08:43:26;99543.87;;;-1.30;74.98
44148;BME280;29810;55.848;37.368;2023-01-26T08:46:28;99539.06;;;-1.10;75.08
44148;BME280;29810;55.848;37.368;2023-01-26T08:49:29;99524.06;;;-0.87;74.46
44148;BME280;29810;55.848;37.368;2023-01-26T08:52:31;99519.69;;;-0.94;73.86
44148;BME280;29810;55.848;37.368;2023-01-26T08:55:33;99522.06;;;-1.07;74.11
44148;BME280;29810;55.848;37.368;2023-01-26T08:58:35;99520.44;;;-1.02;74.17
44148;BME280;29810;55.848;37.368;2023-01-26T09:01:36;99517.00;;;-1.04;74.51
44148;BME280;29810;55.848;37.368;2023-01-26T09:04:38;99518.84;;;-0.93;74.03
44148;BME280;29810;55.848;37.368;2023-01-26T09:07:39;99515.25;;;-1.05;74.24
44148;BME280;29810;55.848;37.368;2023-01-26T09:10:41;99511.88;;;-1.04;74.40
44148;BME280;29810;55.848;37.368;2023-01-26T09:13:49;99514.13;;;-1.25;74.93
44148;BME280;29810;55.848;37.368;2023-01-26T09:16:56;99503.41;;;-1.00;75.10
44148;BME280;29810;55.848;37.368;2023-01-26T09:19:58;99510.59;;;-0.74;74.10
44148;BME280;29810;55.848;37.368;2023-01-26T09:22:59;99504.50;;;-0.84;73.60
44148;BME280;29810;55.848;37.368;2023-01-26T09:26:02;99511.38;;;-0.81;74.09
44148;BME280;29810;55.848;37.368;2023-01-26T09:29:03;99503.09;;;-0.61;73.95
44148;BME280;29810;55.848;37.368;2023-01-26T09:32:05;99514.59;;;-0.28;73.94
44148;BME280;29810;55.848;37.368;2023-01-26T09:35:07;99510.28;;;-0.31;73.62
44148;BME280;29810;55.848;37.368;2023-01-26T09:38:11;99501.59;;;-0.42;72.61
44148;BME280;29810;55.848;37.368;2023-01-26T09:41:32;99509.03;;;-0.62;74.61
44148;BME280;29810;55.848;37.368;2023-01-26T09:44:47;99519.06;;;-0.78;74.11
44148;BME280;29810;55.848;37.368;2023-01-26T09:48:13;99514.88;;;-0.73;74.93
44148;BME280;29810;55.848;37.368;2023-01-26T09:51:31;99513.28;;;-0.63;75.43
44148;BME280;29810;55.848;37.368;2023-01-26T09:54:57;99512.56;;;-0.51;74.23
44148;BME280;29810;55.848;37.368;2023-01-26T09:58:02;99509.25;;;-0.45;75.18
44148;BME280;29810;55.848;37.368;2023-01-26T10:01:16;99507.53;;;-0.45;74.31
44148;BME280;29810;55.848;37.368;2023-01-26T10:04:29;99500.78;;;-0.40;73.86
44148;BME280;29810;55.848;37.368;2023-01-26T10:07:37;99499.75;;;-0.54;76.62
44148;BME280;29810;55.848;37.368;2023-01-26T10:10:45;99502.41;;;-0.48;75.03
44148;BME280;29810;55.848;37.368;2023-01-26T10:13:53;99501.50;;;-0.48;74.69
44148;BME280;29810;55.848;37.368;2023-01-26T10:16:58;99490.22;;;-0.64;74.26
44148;BME280;29810;55.848;37.368;2023-01-26T10:23:25;99490.09;;;-0.74;75.31
44148;BME280;29810;55.848;37.368;2023-01-26T10:26:32;99489.28;;;-0.71;75.58
44148;BME280;29810;55.848;37.368;2023-01-26T10:29:34;99486.03;;;-0.58;75.24
44148;BME280;29810;55.848;37.368;2023-01-26T10:32:35;99486.44;;;-0.24;75.38
44148;BME280;29810;55.848;37.368;2023-01-26T10:35:37;99487.59;;;0.03;75.47
44148;BME280;29810;55.848;37.368;2023-01-26T10:38:40;99484.78;;;-0.20;74.33
44148;BME280;29810;55.848;37.368;2023-01-26T10:41:59;99479.78;;;-0.08;75.01
44148;BME280;29810;55.848;37.368;2023-01-26T10:45:03;99483.72;;;-0.38;75.97
44148;BME280;29810;55.848;37.368;2023-01-26T10:48:19;99471.62;;;-0.49;77.23
44148;BME280;29810;55.848;37.368;2023-01-26T10:51:30;99475.91;;;-0.48;78.64
44148;BME280;29810;55.848;37.368;2023-01-26T10:54:32;99463.16;;;-0.44;78.79
44148;BME280;29810;55.848;37.368;2023-01-26T10:57:40;99447.56;;;-0.62;78.60
44148;BME280;29810;55.848;37.368;2023-01-26T11:00:43;99455.06;;;-0.78;79.12
44148;BME280;29810;55.848;37.368;2023-01-26T11:04:03;99450.88;;;-0.70;79.26
44148;BME280;29810;55.848;37.368;2023-01-26T11:07:25;99450.84;;;-0.73;78.85
44148;BME280;29810;55.848;37.368;2023-01-26T11:10:31;99450.84;;;-0.73;78.63
44148;BME280;29810;55.848;37.368;2023-01-26T11:13:33;99443.16;;;-0.76;78.68
44148;BME280;29810;55.848;37.368;2023-01-26T11:16:35;99431.38;;;-0.60;78.09
44148;BME280;29810;55.848;37.368;2023-01-26T11:30:31;99427.28;;;-0.47;78.24
44148;BME280;29810;55.848;37.368;2023-01-26T11:40:13;99414.41;;;-0.50;77.28
44148;BME280;29810;55.848;37.368;2023-01-26T11:46:50;99424.56;;;-0.58;77.75
44148;BME280;29810;55.848;37.368;2023-01-26T11:57:03;99405.31;;;-0.23;78.37
44148;BME280;29810;55.848;37.368;2023-01-26T12:00:18;99413.03;;;-0.17;78.12
44148;BME280;29810;55.848;37.368;2023-01-26T12:06:41;99417.38;;;-0.13;78.10
44148;BME280;29810;55.848;37.368;2023-01-26T12:09:46;99412.91;;;-0.31;77.98
44148;BME280;29810;55.848;37.368;2023-01-26T12:12:56;99425.47;;;-0.54;78.79
44148;BME280;29810;55.848;37.368;2023-01-26T12:16:08;99420.94;;;-0.78;80.15
44148;BME280;29810;55.848;37.368;2023-01-26T12:22:46;99419.44;;;-0.59;81.37
44148;BME280;29810;55.848;37.368;2023-01-26T12:26:13;99422.78;;;-0.65;80.86
44148;BME280;29810;55.848;37.368;2023-01-26T12:29:23;99404.56;;;-0.91;81.64
44148;BME280;29810;55.848;37.368;2023-01-26T12:32:26;99426.88;;;-0.81;82.07
44148;BME280;29810;55.848;37.368;2023-01-26T12:36:07;99414.84;;;-0.87;81.98
44148;BME280;29810;55.848;37.368;2023-01-26T12:39:33;99409.72;;;-0.85;82.73
44148;BME280;29810;55.848;37.368;2023-01-26T12:42:49;99410.62;;;-0.80;83.03
44148;BME280;29810;55.848;37.368;2023-01-26T12:45:56;99414.75;;;-0.93;83.27
44148;BME280;29810;55.848;37.368;2023-01-26T12:49:05;99411.22;;;-1.03;83.11
44148;BME280;29810;55.848;37.368;2023-01-26T12:59:10;99413.63;;;-1.15;84.63
44148;BME280;29810;55.848;37.368;2023-01-26T13:05:31;99413.78;;;-1.03;83.74
44148;BME280;29810;55.848;37.368;2023-01-26T13:17:50;99416.91;;;-1.24;84.80
44148;BME280;29810;55.848;37.368;2023-01-26T13:20:54;99417.72;;;-1.26;84.97
44148;BME280;29810;55.848;37.368;2023-01-26T13:23:55;99409.91;;;-1.37;85.21
44148;BME280;29810;55.848;37.368;2023-01-26T13:26:59;99413.31;;;-1.37;85.46
44148;BME280;29810;55.848;37.368;2023-01-26T13:30:01;99424.44;;;-1.35;85.59
44148;BME280;29810;55.848;37.368;2023-01-26T13:33:22;99412.63;;;-1.26;85.79
44148;BME280;29810;55.848;37.368;2023-01-26T13:36:28;99429.00;;;-1.13;85.53
44148;BME280;29810;55.848;37.368;2023-01-26T13:39:33;99419.56;;;-1.18;85.42
44148;BME280;29810;55.848;37.368;2023-01-26T13:42:39;99423.00;;;-1.14;85.46
44148;BME280;29810;55.848;37.368;2023-01-26T13:49:26;99420.66;;;-0.97;85.11
44148;BME280;29810;55.848;37.368;2023-01-26T13:52:28;99419.75;;;-1.02;84.87
44148;BME280;29810;55.848;37.368;2023-01-26T13:55:30;99414.44;;;-1.18;85.05
44148;BME280;29810;55.848;37.368;2023-01-26T13:58:33;99422.84;;;-1.26;85.93
44148;BME280;29810;55.848;37.368;2023-01-26T14:01:47;99422.84;;;-1.26;86.04
44148;BME280;29810;55.848;37.368;2023-01-26T14:04:54;99412.75;;;-1.14;86.06
44148;BME280;29810;55.848;37.368;2023-01-26T14:07:56;99414.63;;;-1.04;85.83
44148;BME280;29810;55.848;37.368;2023-01-26T14:10:59;99407.00;;;-1.01;85.52
44148;BME280;29810;55.848;37.368;2023-01-26T14:14:02;99418.88;;;-1.06;85.16
44148;BME280;29810;55.848;37.368;2023-01-26T14:17:23;99414.69;;;-1.01;85.32
44148;BME280;29810;55.848;37.368;2023-01-26T14:20:32;99416.44;;;-0.96;85.32
44148;BME280;29810;55.848;37.368;2023-01-26T14:23:35;99413.75;;;-1.06;85.33
44148;BME280;29810;55.848;37.368;2023-01-26T14:26:37;99421.16;;;-1.24;85.56
44148;BME280;29810;55.848;37.368;2023-01-26T14:29:39;99403.28;;;-1.23;85.69
44148;BME280;29810;55.848;37.368;2023-01-26T14:32:40;99409.16;;;-1.28;85.91
44148;BME280;29810;55.848;37.368;2023-01-26T14:35:55;99400.63;;;-1.29;86.10
44148;BME280;29810;55.848;37.368;2023-01-26T14:38:57;99397.28;;;-1.23;86.46
44148;BME280;29810;55.848;37.368;2023-01-26T14:42:01;99405.06;;;-1.15;86.31
44148;BME280;29810;55.848;37.368;2023-01-26T14:45:04;99408.56;;;-1.09;86.17
44148;BME280;29810;55.848;37.368;2023-01-26T14:48:08;99399.37;;;-0.93;85.70
44148;BME280;29810;55.848;37.368;2023-01-26T14:51:23;99398.72;;;-0.81;85.06
44148;BME280;29810;55.848;37.368;2023-01-26T14:54:31;99398.03;;;-0.63;84.70
44148;BME280;29810;55.848;37.368;2023-01-26T14:57:33;99386.84;;;-0.73;83.78
44148;BME280;29810;55.848;37.368;2023-01-26T15:00:36;99402.34;;;-0.60;83.71
44148;BME280;29810;55.848;37.368;2023-01-26T15:03:38;99401.47;;;-0.62;83.57
44148;BME280;29810;55.848;37.368;2023-01-26T15:06:40;99404.59;;;-0.85;83.57
44148;BME280;29810;55.848;37.368;2023-01-26T15:09:53;99395.16;;;-0.89;83.84
44148;BME280;29810;55.848;37.368;2023-01-26T15:16:18;99394.34;;;-0.88;84.61
44148;BME280;29810;55.848;37.368;2023-01-26T15:19:25;99395.03;;;-1.00;85.13
44148;BME280;29810;55.848;37.368;2023-01-26T15:22:26;99400.19;;;-0.98;85.79
44148;BME280;29810;55.848;37.368;2023-01-26T15:25:34;99399.28;;;-1.02;86.05
44148;BME280;29810;55.848;37.368;2023-01-26T15:28:38;99402.84;;;-0.89;86.89
44148;BME280;29810;55.848;37.368;2023-01-26T15:31:41;99392.66;;;-0.86;86.67
44148;BME280;29810;55.848;37.368;2023-01-26T15:34:43;99396.16;;;-0.78;87.11
44148;BME280;29810;55.848;37.368;2023-01-26T15:37:46;99391.91;;;-0.77;87.12
44148;BME280;29810;55.848;37.368;2023-01-26T15:40:48;99384.09;;;-0.90;87.27
44148;BME280;29810;55.848;37.368;2023-01-26T15:43:51;99398.63;;;-0.87;87.42
44148;BME280;29810;55.848;37.368;2023-01-26T15:46:52;99398.59;;;-0.89;87.85
44148;BME280;29810;55.848;37.368;2023-01-26T15:49:56;99396.78;;;-0.97;88.41
44148;BME280;29810;55.848;37.368;2023-01-26T15:52:58;99391.53;;;-1.08;88.92
44148;BME280;29810;55.848;37.368;2023-01-26T15:55:59;99385.44;;;-1.18;89.58
44148;BME280;29810;55.848;37.368;2023-01-26T15:59:01;99383.81;;;-1.10;89.84
44148;BME280;29810;55.848;37.368;2023-01-26T16:02:03;99388.12;;;-1.07;90.18
44148;BME280;29810;55.848;37.368;2023-01-26T16:05:15;99382.94;;;-1.12;89.90
44148;BME280;29810;55.848;37.368;2023-01-26T16:08:18;99379.47;;;-1.15;90.28
44148;BME280;29810;55.848;37.368;2023-01-26T16:11:23;99380.28;;;-1.21;90.48
44148;BME280;29810;55.848;37.368;2023-01-26T16:14:26;99381.84;;;-1.31;90.65
44148;BME280;29810;55.848;37.368;2023-01-26T16:17:28;99392.25;;;-1.20;90.85
44148;BME280;29810;55.848;37.368;2023-01-26T16:20:30;99387.16;;;-1.17;91.15
44148;BME280;29810;55.848;37.368;2023-01-26T16:23:35;99375.78;;;-1.36;91.07
44148;BME280;29810;55.848;37.368;2023-01-26T16:26:38;99391.00;;;-1.45;91.32
44148;BME280;29810;55.848;37.368;2023-01-26T16:29:40;99384.22;;;-1.43;91.44
44148;BME280;29810;55.848;37.368;2023-01-26T16:32:41;99396.94;;;-1.48;91.50
44148;BME280;29810;55.848;37.368;2023-01-26T16:35:45;99393.44;;;-1.53;91.71
44148;BME280;29810;55.848;37.368;2023-01-26T16:38:47;99381.69;;;-1.42;91.49
44148;BME280;29810;55.848;37.368;2023-01-26T16:41:49;99384.09;;;-1.54;91.48
44148;BME280;29810;55.848;37.368;2023-01-26T16:44:50;99395.09;;;-1.58;91.32
44148;BME280;29810;55.848;37.368;2023-01-26T16:47:55;99391.66;;;-1.60;92.01
44148;BME280;29810;55.848;37.368;2023-01-26T16:51:00;99392.47;;;-1.63;91.90
44148;BME280;29810;55.848;37.368;2023-01-26T16:54:03;99389.16;;;-1.56;91.50
44148;BME280;29810;55.848;37.368;2023-01-26T16:57:04;99385.97;;;-1.41;90.90
44148;BME280;29810;55.848;37.368;2023-01-26T17:00:14;99386.72;;;-1.48;90.54
44148;BME280;29810;55.848;37.368;2023-01-26T17:03:19;99390.03;;;-1.55;90.33
44148;BME280;29810;55.848;37.368;2023-01-26T17:06:22;99389.78;;;-1.71;90.21
44148;BME280;29810;55.848;37.368;2023-01-26T17:09:27;99381.38;;;-1.63;90.89
44148;BME280;29810;55.848;37.368;2023-01-26T17:12:30;99380.06;;;-1.37;90.53
44148;BME280;29810;55.848;37.368;2023-01-26T17:15:36;99379.81;;;-1.55;89.08